Time,TemperatureF,DewpointF,PressureIn,WindDirection,WindDirectionDegrees,WindSpeedMPH,WindSpeedGustMPH,Humidity,HourlyPrecipIn,Conditions,Clouds,dailyrainin,SolarRadiationWatts/m^2,SoftwareType,DateUTC
2013-10-14 00:13:00,45.6,44.0,30.48,NNW,340,0.0,1.0,92,0.00,,,0.00,0,weatherlink.com 1.10,2013-10-14 04:13:00,
2013-10-14 00:28:00,45.3,43.0,30.47,NNW,340,0.0,1.0,93,0.00,,,0.00,0,weatherlink.com 1.10,2013-10-14 04:28:00,
2013-10-14 00:43:00,44.9,43.0,30.47,NNW,339,1.0,2.0,93,0.00,,,0.00,0,weatherlink.com 1.10,2013-10-14 04:43:00,
2013-10-14 00:58:00,44.6,43.0,30.47,NNW,339,1.0,2.0,93,0.00,,,0.00,0,weatherlink.com 1.10,2013-10-14 04:58:00,
2013-10-14 01:13:00,44.7,43.0,30.47,NNW,339,0.0,2.0,94,0.00,,,0.00,0,weatherlink.com 1.10,2013-10-14 05:13:00,
2013-10-14 01:28:00,44.1,42.0,30.47,NNW,339,0.0,0.0,93,0.00,,,0.00,0,weatherlink.com 1.10,2013-10-14 05:28:00,
2013-10-14 01:43:00,43.6,42.0,30.46,NW,313,0.0,4.0,93,0.00,,,0.00,0,weatherlink.com 1.10,2013-10-14 05:43:00,
2013-10-14 01:58:00,43.3,42.0,30.46,NW,313,1.0,3.0,94,0.00,,,0.00,0,weatherlink.com 1.10,2013-10-14 05:58:00,
2013-10-14 02:13:00,43.0,41.0,30.46,NW,310,0.0,4.0,94,0.00,,,0.00,0,weatherlink.com 1.10,2013-10-14 06:13:00,
2013-10-14 02:28:00,43.0,41.0,30.45,NW,310,1.0,1.0,94,0.00,,,0.00,0,weatherlink.com 1.10,2013-10-14 06:28:00,
2013-10-14 02:43:00,42.8,42.0,30.44,NW,310,1.0,2.0,95,0.00,,,0.00,0,weatherlink.com 1.10,2013-10-14 06:43:00,
2013-10-14 02:58:00,42.5,41.0,30.44,NW,310,0.0,2.0,95,0.00,,,0.00,0,weatherlink.com 1.10,2013-10-14 06:58:00,
2013-10-14 03:13:00,42.2,41.0,30.45,NW,310,2.0,3.0,95,0.00,,,0.00,0,weatherlink.com 1.10,2013-10-14 07:13:00,
2013-10-14 03:28:00,41.7,40.0,30.44,NW,310,0.0,1.0,95,0.00,,,0.00,0,weatherlink.com 1.10,2013-10-14 07:28:00,
2013-10-14 03:43:00,41.7,40.0,30.44,NW,310,0.0,1.0,95,0.00,,,0.00,0,weatherlink.com 1.10,2013-10-14 07:43:00,
2013-10-14 03:58:00,41.7,40.0,30.44,NW,310,0.0,0.0,95,0.00,,,0.00,0,weatherlink.com 1.10,2013-10-14 07:58:00,
2013-10-14 04:13:00,41.2,40.0,30.44,NW,310,0.0,2.0,95,0.00,,,0.00,0,weatherlink.com 1.10,2013-10-14 08:13:00,
2013-10-14 04:29:00,40.8,40.0,30.44,NW,310,0.0,2.0,95,0.00,,,0.00,0,weatherlink.com 1.10,2013-10-14 08:29:00,
2013-10-14 04:44:00,40.5,39.0,30.44,NW,310,1.0,3.0,95,0.00,,,0.00,0,weatherlink.com 1.10,2013-10-14 08:44:00,
2013-10-14 04:59:00,40.5,39.0,30.43,NW,310,0.0,1.0,95,0.00,,,0.00,0,weatherlink.com 1.10,2013-10-14 08:59:00,
2013-10-14 05:14:00,40.3,39.0,30.44,NW,310,1.0,2.0,95,0.00,,,0.00,0,weatherlink.com 1.10,2013-10-14 09:14:00,
2013-10-14 05:29:00,40.1,39.0,30.44,NW,310,0.0,2.0,95,0.00,,,0.00,0,weatherlink.com 1.10,2013-10-14 09:29:00,
2013-10-14 05:44:00,39.8,39.0,30.44,NW,310,1.0,2.0,95,0.00,,,0.00,0,weatherlink.com 1.10,2013-10-14 09:44:00,
2013-10-14 05:59:00,40.0,39.0,30.44,NW,310,1.0,3.0,96,0.00,,,0.00,0,weatherlink.com 1.10,2013-10-14 09:59:00,
2013-10-14 06:14:00,39.8,39.0,30.44,NW,309,1.0,3.0,96,0.00,,,0.00,0,weatherlink.com 1.10,2013-10-14 10:14:00,
2013-10-14 06:29:00,39.7,39.0,30.44,NW,309,0.0,0.0,96,0.00,,,0.00,0,weatherlink.com 1.10,2013-10-14 10:29:00,
2013-10-14 06:44:00,40.1,39.0,30.44,NW,310,0.0,0.0,96,0.00,,,0.00,0,weatherlink.com 1.10,2013-10-14 10:44:00,
2013-10-14 06:59:00,39.7,39.0,30.44,NW,310,0.0,0.0,96,0.00,,,0.00,5,weatherlink.com 1.10,2013-10-14 10:59:00,
2013-10-14 07:14:00,39.8,39.0,30.44,NW,309,0.0,0.0,96,0.00,,,0.00,16,weatherlink.com 1.10,2013-10-14 11:14:00,
2013-10-14 07:29:00,40.8,40.0,30.44,NW,309,0.0,0.0,97,0.00,,,0.00,35,weatherlink.com 1.10,2013-10-14 11:29:00,
2013-10-14 07:44:00,40.8,40.0,30.45,NW,310,0.0,0.0,96,0.00,,,0.00,81,weatherlink.com 1.10,2013-10-14 11:44:00,
2013-10-14 07:59:00,40.9,40.0,30.45,NW,310,0.0,1.0,96,0.00,,,0.00,123,weatherlink.com 1.10,2013-10-14 11:59:00,
2013-10-14 08:14:00,41.6,41.0,30.46,NW,309,0.0,2.0,97,0.00,,,0.00,171,weatherlink.com 1.10,2013-10-14 12:14:00,
2013-10-14 08:29:00,42.4,42.0,30.46,NW,309,0.0,3.0,97,0.00,,,0.00,214,weatherlink.com 1.10,2013-10-14 12:29:00,
2013-10-14 08:44:00,44.5,44.0,30.45,NW,309,0.0,1.0,97,0.00,,,0.00,253,weatherlink.com 1.10,2013-10-14 12:44:00,
2013-10-14 08:59:00,45.5,45.0,30.45,NW,309,0.0,2.0,96,0.00,,,0.00,290,weatherlink.com 1.10,2013-10-14 12:59:00,
2013-10-14 09:14:00,47.6,47.0,30.45,NW,309,0.0,1.0,96,0.00,,,0.00,327,weatherlink.com 1.10,2013-10-14 13:14:00,
2013-10-14 09:29:00,48.9,46.0,30.45,NNE,15,0.0,4.0,91,0.00,,,0.00,360,weatherlink.com 1.10,2013-10-14 13:29:00,
2013-10-14 09:44:00,50.8,47.0,30.45,NW,317,0.0,3.0,86,0.00,,,0.00,392,weatherlink.com 1.10,2013-10-14 13:44:00,
2013-10-14 09:59:00,53.1,47.0,30.44,WNW,291,2.0,3.0,81,0.00,,,0.00,427,weatherlink.com 1.10,2013-10-14 13:59:00,
2013-10-14 10:15:00,53.7,47.0,30.44,West,259,0.0,4.0,78,0.00,,,0.00,473,weatherlink.com 1.10,2013-10-14 14:15:00,
2013-10-14 10:30:00,54.7,46.0,30.44,North,355,2.0,5.0,73,0.00,,,0.00,536,weatherlink.com 1.10,2013-10-14 14:30:00,
2013-10-14 10:45:00,55.3,46.0,30.43,West,264,1.0,5.0,71,0.00,,,0.00,564,weatherlink.com 1.10,2013-10-14 14:45:00,
2013-10-14 11:00:00,56.1,46.0,30.43,West,270,1.0,4.0,68,0.00,,,0.00,580,weatherlink.com 1.10,2013-10-14 15:00:00,
2013-10-14 11:15:00,57.1,45.0,30.42,WSW,250,3.0,4.0,64,0.00,,,0.00,596,weatherlink.com 1.10,2013-10-14 15:15:00,
2013-10-14 11:30:00,57.3,44.0,30.41,South,172,3.0,5.0,61,0.00,,,0.00,617,weatherlink.com 1.10,2013-10-14 15:30:00,
2013-10-14 11:45:00,58.2,45.0,30.41,WSW,249,3.0,5.0,61,0.00,,,0.00,640,weatherlink.com 1.10,2013-10-14 15:45:00,
2013-10-14 12:00:00,59.0,44.0,30.40,South,186,2.0,7.0,59,0.00,,,0.00,650,weatherlink.com 1.10,2013-10-14 16:00:00,
2013-10-14 12:16:00,59.9,42.0,30.39,West,275,7.0,7.0,52,0.00,,,0.00,659,weatherlink.com 1.10,2013-10-14 16:16:00,
2013-10-14 12:30:00,61.2,41.0,30.39,SE,146,1.0,6.0,47,0.00,,,0.00,652,weatherlink.com 1.10,2013-10-14 16:30:00,
2013-10-14 12:45:00,62.3,42.0,30.37,WSW,237,5.0,6.0,47,0.00,,,0.00,654,weatherlink.com 1.10,2013-10-14 16:45:00,
2013-10-14 13:00:00,63.0,40.0,30.37,West,271,0.0,5.0,43,0.00,,,0.00,652,weatherlink.com 1.10,2013-10-14 17:00:00,
2013-10-14 13:15:00,62.7,37.0,30.36,West,273,3.0,5.0,39,0.00,,,0.00,649,weatherlink.com 1.10,2013-10-14 17:15:00,
2013-10-14 13:30:00,63.4,38.0,30.36,West,280,2.0,6.0,39,0.00,,,0.00,640,weatherlink.com 1.10,2013-10-14 17:30:00,
2013-10-14 13:45:00,63.7,37.0,30.35,SSE,149,4.0,6.0,37,0.00,,,0.00,624,weatherlink.com 1.10,2013-10-14 17:45:00,
2013-10-14 14:00:00,64.6,38.0,30.35,SW,225,1.0,7.0,37,0.00,,,0.00,570,weatherlink.com 1.10,2013-10-14 18:00:00,
2013-10-14 14:16:00,65.5,38.0,30.34,WNW,288,3.0,7.0,37,0.00,,,0.00,529,weatherlink.com 1.10,2013-10-14 18:16:00,
2013-10-14 14:31:00,65.6,41.0,30.34,SSW,207,4.0,6.0,40,0.00,,,0.00,429,weatherlink.com 1.10,2013-10-14 18:31:00,
2013-10-14 14:46:00,65.0,41.0,30.34,SSE,150,3.0,5.0,41,0.00,,,0.00,475,weatherlink.com 1.10,2013-10-14 18:46:00,
2013-10-14 15:01:00,65.5,40.0,30.33,South,175,1.0,5.0,39,0.00,,,0.00,364,weatherlink.com 1.10,2013-10-14 19:01:00,
2013-10-14 15:16:00,65.6,38.0,30.33,South,173,1.0,6.0,37,0.00,,,0.00,269,weatherlink.com 1.10,2013-10-14 19:16:00,
2013-10-14 15:31:00,63.4,47.0,30.32,South,173,3.0,9.0,56,0.00,,,0.00,301,weatherlink.com 1.10,2013-10-14 19:31:00,
2013-10-14 15:46:00,62.6,49.0,30.32,South,180,6.0,9.0,61,0.00,,,0.00,264,weatherlink.com 1.10,2013-10-14 19:46:00,
2013-10-14 16:01:00,62.1,50.0,30.32,ESE,113,3.0,8.0,64,0.00,,,0.00,209,weatherlink.com 1.10,2013-10-14 20:01:00,
2013-10-14 16:16:00,61.4,50.0,30.32,East,86,5.0,7.0,67,0.00,,,0.00,151,weatherlink.com 1.10,2013-10-14 20:16:00,
2013-10-14 16:31:00,60.8,50.0,30.32,SE,136,3.0,7.0,68,0.00,,,0.00,121,weatherlink.com 1.10,2013-10-14 20:31:00,
2013-10-14 16:46:00,60.1,50.0,30.32,SE,136,4.0,6.0,69,0.00,,,0.00,102,weatherlink.com 1.10,2013-10-14 20:46:00,
2013-10-14 17:01:00,59.6,50.0,30.32,ESE,119,3.0,8.0,70,0.00,,,0.00,72,weatherlink.com 1.10,2013-10-14 21:01:00,
2013-10-14 17:16:00,59.3,50.0,30.33,SE,129,2.0,7.0,72,0.00,,,0.00,53,weatherlink.com 1.10,2013-10-14 21:16:00,
2013-10-14 17:31:00,58.9,50.0,30.32,SE,134,1.0,8.0,73,0.00,,,0.00,33,weatherlink.com 1.10,2013-10-14 21:31:00,
2013-10-14 17:46:00,58.7,50.0,30.33,ESE,121,2.0,7.0,74,0.00,,,0.00,19,weatherlink.com 1.10,2013-10-14 21:46:00,
2013-10-14 18:01:00,58.6,51.0,30.33,SE,126,1.0,5.0,75,0.00,,,0.00,9,weatherlink.com 1.10,2013-10-14 22:01:00,
2013-10-14 18:16:00,58.4,51.0,30.33,ESE,123,0.0,3.0,75,0.00,,,0.00,0,weatherlink.com 1.10,2013-10-14 22:16:00,
2013-10-14 18:31:00,58.2,51.0,30.34,East,96,0.0,2.0,76,0.00,,,0.00,0,weatherlink.com 1.10,2013-10-14 22:31:00,
2013-10-14 18:46:00,57.9,51.0,30.34,East,96,0.0,1.0,77,0.00,,,0.00,0,weatherlink.com 1.10,2013-10-14 22:46:00,
2013-10-14 19:01:00,57.5,51.0,30.34,East,96,0.0,1.0,78,0.00,,,0.00,0,weatherlink.com 1.10,2013-10-14 23:01:00,
2013-10-14 19:16:00,56.9,50.0,30.34,East,96,0.0,0.0,79,0.00,,,0.00,0,weatherlink.com 1.10,2013-10-14 23:16:00,
2013-10-14 19:31:00,56.4,51.0,30.34,East,96,0.0,0.0,81,0.00,,,0.00,0,weatherlink.com 1.10,2013-10-14 23:31:00,
2013-10-14 19:46:00,56.7,53.0,30.34,East,96,0.0,0.0,86,0.00,,,0.00,0,weatherlink.com 1.10,2013-10-14 23:46:00,
2013-10-14 20:01:00,56.3,51.0,30.34,East,96,0.0,0.0,82,0.00,,,0.00,0,weatherlink.com 1.10,2013-10-15 00:01:00,
2013-10-14 20:16:00,55.3,51.0,30.35,East,93,0.0,2.0,85,0.00,,,0.00,0,weatherlink.com 1.10,2013-10-15 00:16:00,
2013-10-14 20:31:00,55.0,50.0,30.34,East,94,1.0,2.0,84,0.00,,,0.00,0,weatherlink.com 1.10,2013-10-15 00:31:00,
2013-10-14 20:46:00,55.0,49.0,30.34,East,97,0.0,1.0,81,0.00,,,0.00,0,weatherlink.com 1.10,2013-10-15 00:46:00,
2013-10-14 21:01:00,55.5,47.0,30.34,SSW,200,0.0,2.0,73,0.00,,,0.00,0,weatherlink.com 1.10,2013-10-15 01:01:00,
2013-10-14 21:16:00,55.9,45.0,30.34,SSW,200,0.0,3.0,68,0.00,,,0.00,0,weatherlink.com 1.10,2013-10-15 01:16:00,
2013-10-14 21:31:00,56.2,45.0,30.33,SSW,194,0.0,5.0,67,0.00,,,0.00,0,weatherlink.com 1.10,2013-10-15 01:31:00,
2013-10-14 21:46:00,56.3,46.0,30.33,SSW,195,1.0,2.0,68,0.00,,,0.00,0,weatherlink.com 1.10,2013-10-15 01:46:00,
2013-10-14 22:01:00,56.4,46.0,30.33,West,259,0.0,3.0,69,0.00,,,0.00,0,weatherlink.com 1.10,2013-10-15 02:01:00,
2013-10-14 22:16:00,56.3,47.0,30.34,West,273,0.0,6.0,70,0.00,,,0.00,0,weatherlink.com 1.10,2013-10-15 02:16:00,
2013-10-14 22:31:00,56.3,47.0,30.33,SSW,207,1.0,3.0,72,0.00,,,0.00,0,weatherlink.com 1.10,2013-10-15 02:31:00,
2013-10-14 22:46:00,56.0,47.0,30.33,SW,235,2.0,4.0,73,0.00,,,0.00,0,weatherlink.com 1.10,2013-10-15 02:46:00,
2013-10-14 23:01:00,55.8,48.0,30.33,SSW,203,1.0,3.0,75,0.00,,,0.00,0,weatherlink.com 1.10,2013-10-15 03:01:00,
2013-10-14 23:16:00,55.6,48.0,30.32,SSW,200,4.0,4.0,76,0.00,,,0.00,0,weatherlink.com 1.10,2013-10-15 03:16:00,
2013-10-14 23:31:00,55.3,49.0,30.33,South,181,0.0,2.0,78,0.00,,,0.00,0,weatherlink.com 1.10,2013-10-15 03:31:00,
2013-10-14 23:46:00,54.9,49.0,30.33,South,180,0.0,2.0,79,0.00,,,0.00,0,weatherlink.com 1.10,2013-10-15 03:46:00,